sensor_id;sensor_type;location;lat;lon;timestamp;temperature;humidity
16392;DHT22;8305;-33.882;151.134;2022-12-18T00:00:33;18.70;99.90
16392;DHT22;8305;-33.882;151.134;2022-12-18T00:03:03;18.60;99.90
16392;DHT22;8305;-33.882;151.134;2022-12-18T00:05:34;18.30;99.90
16392;DHT22;8305;-33.882;151.134;2022-12-18T00:08:07;18.20;99.90
16392;DHT22;8305;-33.882;151.134;2022-12-18T00:10:38;18.10;99.90
16392;DHT22;8305;-33.882;151.134;2022-12-18T00:13:08;18.10;99.90
16392;DHT22;8305;-33.882;151.134;2022-12-18T00:15:40;18.30;99.90
16392;DHT22;8305;-33.882;151.134;2022-12-18T00:18:10;18.50;99.90
16392;DHT22;8305;-33.882;151.134;2022-12-18T00:20:41;18.60;99.90
16392;DHT22;8305;-33.882;151.134;2022-12-18T00:23:14;18.70;99.90
16392;DHT22;8305;-33.882;151.134;2022-12-18T00:25:47;19.00;99.90
16392;DHT22;8305;-33.882;151.134;2022-12-18T00:28:18;19.10;99.90
16392;DHT22;8305;-33.882;151.134;2022-12-18T00:30:49;19.10;99.90
16392;DHT22;8305;-33.882;151.134;2022-12-18T00:33:20;19.30;99.90
16392;DHT22;8305;-33.882;151.134;2022-12-18T00:35:50;19.30;99.90
16392;DHT22;8305;-33.882;151.134;2022-12-18T00:38:23;19.30;99.90
16392;DHT22;8305;-33.882;151.134;2022-12-18T00:40:54;19.30;99.90
16392;DHT22;8305;-33.882;151.134;2022-12-18T00:43:25;19.30;99.90
16392;DHT22;8305;-33.882;151.134;2022-12-18T00:45:54;19.30;99.90
16392;DHT22;8305;-33.882;151.134;2022-12-18T00:48:25;19.50;99.90
16392;DHT22;8305;-33.882;151.134;2022-12-18T00:50:56;19.40;99.90
16392;DHT22;8305;-33.882;151.134;2022-12-18T00:53:29;19.50;99.90
16392;DHT22;8305;-33.882;151.134;2022-12-18T00:56:00;19.60;99.90
16392;DHT22;8305;-33.882;151.134;2022-12-18T00:58:33;19.60;99.90
16392;DHT22;8305;-33.882;151.134;2022-12-18T01:01:05;19.90;99.90
16392;DHT22;8305;-33.882;151.134;2022-12-18T01:03:36;20.00;99.90
16392;DHT22;8305;-33.882;151.134;2022-12-18T01:06:08;19.90;99.90
16392;DHT22;8305;-33.882;151.134;2022-12-18T01:08:41;19.50;99.90
16392;DHT22;8305;-33.882;151.134;2022-12-18T01:11:13;19.00;99.90
16392;DHT22;8305;-33.882;151.134;2022-12-18T01:13:44;18.70;99.90
16392;DHT22;8305;-33.882;151.134;2022-12-18T01:16:16;18.80;99.90
16392;DHT22;8305;-33.882;151.134;2022-12-18T01:18:50;18.90;99.90
16392;DHT22;8305;-33.882;151.134;2022-12-18T01:21:21;18.80;99.90
16392;DHT22;8305;-33.882;151.134;2022-12-18T01:23:57;18.70;99.90
16392;DHT22;8305;-33.882;151.134;2022-12-18T01:26:28;18.70;99.90
16392;DHT22;8305;-33.882;151.134;2022-12-18T01:28:59;18.70;99.90
16392;DHT22;8305;-33.882;151.134;2022-12-18T01:31:31;18.60;99.90
16392;DHT22;8305;-33.882;151.134;2022-12-18T01:34:02;18.40;99.90
16392;DHT22;8305;-33.882;151.134;2022-12-18T01:36:34;18.30;99.90
16392;DHT22;8305;-33.882;151.134;2022-12-18T01:39:10;18.40;99.90
16392;DHT22;8305;-33.882;151.134;2022-12-18T01:41:41;18.40;99.90
16392;DHT22;8305;-33.882;151.134;2022-12-18T01:44:53;18.40;99.90
16392;DHT22;8305;-33.882;151.134;2022-12-18T01:47:27;18.30;99.90
16392;DHT22;8305;-33.882;151.134;2022-12-18T01:50:00;18.40;99.90
16392;DHT22;8305;-33.882;151.134;2022-12-18T01:52:34;18.50;99.90
16392;DHT22;8305;-33.882;151.134;2022-12-18T01:55:11;18.40;99.90
16392;DHT22;8305;-33.882;151.134;2022-12-18T01:57:42;18.00;99.90
16392;DHT22;8305;-33.882;151.134;2022-12-18T02:00:15;17.80;99.90
16392;DHT22;8305;-33.882;151.134;2022-12-18T02:02:47;17.60;99.90
16392;DHT22;8305;-33.882;151.134;2022-12-18T02:05:22;17.40;99.90
16392;DHT22;8305;-33.882;151.134;2022-12-18T02:08:03;17.20;99.90
16392;DHT22;8305;-33.882;151.134;2022-12-18T02:10:45;17.10;99.90
16392;DHT22;8305;-33.882;151.134;2022-12-18T02:13:20;17.20;99.90
16392;DHT22;8305;-33.882;151.134;2022-12-18T02:16:01;17.40;99.90
16392;DHT22;8305;-33.882;151.134;2022-12-18T02:18:38;17.50;99.90
16392;DHT22;8305;-33.882;151.134;2022-12-18T02:21:17;17.60;99.90
16392;DHT22;8305;-33.882;151.134;2022-12-18T02:23:56;17.60;99.90
16392;DHT22;8305;-33.882;151.134;2022-12-18T02:26:32;17.50;99.90
16392;DHT22;8305;-33.882;151.134;2022-12-18T02:29:08;17.50;99.90
16392;DHT22;8305;-33.882;151.134;2022-12-18T02:31:45;17.50;99.90
16392;DHT22;8305;-33.882;151.134;2022-12-18T02:34:19;17.40;99.90
16392;DHT22;8305;-33.882;151.134;2022-12-18T02:36:52;17.60;99.90
16392;DHT22;8305;-33.882;151.134;2022-12-18T02:39:25;17.90;99.90
16392;DHT22;8305;-33.882;151.134;2022-12-18T02:41:59;18.10;99.90
16392;DHT22;8305;-33.882;151.134;2022-12-18T02:44:35;18.50;99.90
16392;DHT22;8305;-33.882;151.134;2022-12-18T02:47:12;18.70;99.90
16392;DHT22;8305;-33.882;151.134;2022-12-18T02:49:53;18.90;99.90
16392;DHT22;8305;-33.882;151.134;2022-12-18T02:52:33;19.30;99.90
16392;DHT22;8305;-33.882;151.134;2022-12-18T02:55:22;19.50;99.90
16392;DHT22;8305;-33.882;151.134;2022-12-18T02:58:00;19.70;99.90
16392;DHT22;8305;-33.882;151.134;2022-12-18T03:00:37;19.60;99.90
16392;DHT22;8305;-33.882;151.134;2022-12-18T03:03:11;19.80;99.90
16392;DHT22;8305;-33.882;151.134;2022-12-18T03:05:47;20.00;99.90
16392;DHT22;8305;-33.882;151.134;2022-12-18T03:08:21;19.80;99.90
16392;DHT22;8305;-33.882;151.134;2022-12-18T03:10:58;19.70;99.90
16392;DHT22;8305;-33.882;151.134;2022-12-18T03:13:35;19.80;99.90
16392;DHT22;8305;-33.882;151.134;2022-12-18T03:16:10;19.70;99.90
16392;DHT22;8305;-33.882;151.134;2022-12-18T03:18:48;19.80;99.90
16392;DHT22;8305;-33.882;151.134;2022-12-18T03:21:26;19.90;99.90
16392;DHT22;8305;-33.882;151.134;2022-12-18T03:23:58;20.00;99.90
16392;DHT22;8305;-33.882;151.134;2022-12-18T03:26:30;19.80;99.90
16392;DHT22;8305;-33.882;151.134;2022-12-18T03:29:07;19.80;99.90
16392;DHT22;8305;-33.882;151.134;2022-12-18T03:31:41;19.90;99.90
16392;DHT22;8305;-33.882;151.134;2022-12-18T03:34:16;19.90;99.90
16392;DHT22;8305;-33.882;151.134;2022-12-18T03:36:48;19.70;99.90
16392;DHT22;8305;-33.882;151.134;2022-12-18T03:39:20;19.70;99.90
16392;DHT22;8305;-33.882;151.134;2022-12-18T03:41:54;19.80;99.90
16392;DHT22;8305;-33.882;151.134;2022-12-18T03:44:29;19.80;99.90
16392;DHT22;8305;-33.882;151.134;2022-12-18T03:47:06;19.80;99.90
16392;DHT22;8305;-33.882;151.134;2022-12-18T03:49:42;19.90;99.90
16392;DHT22;8305;-33.882;151.134;2022-12-18T03:52:20;19.80;99.90
16392;DHT22;8305;-33.882;151.134;2022-12-18T03:54:52;19.70;99.90
16392;DHT22;8305;-33.882;151.134;2022-12-18T03:57:27;19.70;99.90
16392;DHT22;8305;-33.882;151.134;2022-12-18T04:00:03;19.70;99.90
16392;DHT22;8305;-33.882;151.134;2022-12-18T04:02:36;19.70;99.90
16392;DHT22;8305;-33.882;151.134;2022-12-18T04:05:09;19.70;99.90
16392;DHT22;8305;-33.882;151.134;2022-12-18T04:07:41;19.70;99.90
16392;DHT22;8305;-33.882;151.134;2022-12-18T04:10:13;19.90;99.90
16392;DHT22;8305;-33.882;151.134;2022-12-18T04:12:44;19.90;99.90
16392;DHT22;8305;-33.882;151.134;2022-12-18T04:15:17;19.80;99.90
16392;DHT22;8305;-33.882;151.134;2022-12-18T04:17:49;19.90;99.90
16392;DHT22;8305;-33.882;151.134;2022-12-18T04:20:20;20.00;99.90
16392;DHT22;8305;-33.882;151.134;2022-12-18T04:22:51;20.00;99.90
16392;DHT22;8305;-33.882;151.134;2022-12-18T04:25:22;20.00;99.90
16392;DHT22;8305;-33.882;151.134;2022-12-18T04:27:52;20.00;99.90
16392;DHT22;8305;-33.882;151.134;2022-12-18T04:30:26;19.80;99.90
16392;DHT22;8305;-33.882;151.134;2022-12-18T04:32:57;19.70;99.90
16392;DHT22;8305;-33.882;151.134;2022-12-18T04:35:28;19.60;99.90
16392;DHT22;8305;-33.882;151.134;2022-12-18T04:37:59;19.60;99.90
16392;DHT22;8305;-33.882;151.134;2022-12-18T04:40:29;19.50;99.90
16392;DHT22;8305;-33.882;151.134;2022-12-18T04:43:01;19.60;99.90
16392;DHT22;8305;-33.882;151.134;2022-12-18T04:45:34;19.70;99.90
16392;DHT22;8305;-33.882;151.134;2022-12-18T04:48:05;19.80;99.90
16392;DHT22;8305;-33.882;151.134;2022-12-18T04:50:36;19.90;99.90
16392;DHT22;8305;-33.882;151.134;2022-12-18T04:53:07;20.10;99.90
16392;DHT22;8305;-33.882;151.134;2022-12-18T04:55:38;20.10;99.90
16392;DHT22;8305;-33.882;151.134;2022-12-18T04:58:08;20.10;99.90
16392;DHT22;8305;-33.882;151.134;2022-12-18T05:00:41;19.90;99.90
16392;DHT22;8305;-33.882;151.134;2022-12-18T05:03:12;20.00;99.90
16392;DHT22;8305;-33.882;151.134;2022-12-18T05:05:43;20.10;99.90
16392;DHT22;8305;-33.882;151.134;2022-12-18T05:08:13;20.10;99.90
16392;DHT22;8305;-33.882;151.134;2022-12-18T05:10:44;20.00;99.90
16392;DHT22;8305;-33.882;151.134;2022-12-18T05:13:15;19.70;99.90
16392;DHT22;8305;-33.882;151.134;2022-12-18T05:15:52;19.60;99.90
16392;DHT22;8305;-33.882;151.134;2022-12-18T05:18:23;19.60;99.90
16392;DHT22;8305;-33.882;151.134;2022-12-18T05:20:54;19.60;99.90
16392;DHT22;8305;-33.882;151.134;2022-12-18T05:23:26;19.60;99.90
16392;DHT22;8305;-33.882;151.134;2022-12-18T05:25:58;19.50;99.90
16392;DHT22;8305;-33.882;151.134;2022-12-18T05:28:30;19.50;99.90
16392;DHT22;8305;-33.882;151.134;2022-12-18T05:31:04;19.60;99.90
16392;DHT22;8305;-33.882;151.134;2022-12-18T05:33:35;19.60;99.90
16392;DHT22;8305;-33.882;151.134;2022-12-18T05:36:08;19.60;99.90
16392;DHT22;8305;-33.882;151.134;2022-12-18T05:38:40;19.60;99.90
16392;DHT22;8305;-33.882;151.134;2022-12-18T05:41:11;19.70;99.90
16392;DHT22;8305;-33.882;151.134;2022-12-18T05:43:42;19.80;99.90
16392;DHT22;8305;-33.882;151.134;2022-12-18T05:46:16;19.70;99.90
16392;DHT22;8305;-33.882;151.134;2022-12-18T05:48:47;19.70;99.90
16392;DHT22;8305;-33.882;151.134;2022-12-18T05:51:20;19.60;99.90
16392;DHT22;8305;-33.882;151.134;2022-12-18T05:53:51;19.60;99.90
16392;DHT22;8305;-33.882;151.134;2022-12-18T05:56:22;19.40;99.90
16392;DHT22;8305;-33.882;151.134;2022-12-18T05:58:54;19.40;99.90
16392;DHT22;8305;-33.882;151.134;2022-12-18T06:01:27;19.40;99.90
16392;DHT22;8305;-33.882;151.134;2022-12-18T06:03:58;19.40;99.90
16392;DHT22;8305;-33.882;151.134;2022-12-18T06:06:29;19.40;99.90
16392;DHT22;8305;-33.882;151.134;2022-12-18T06:09:00;19.40;99.90
16392;DHT22;8305;-33.882;151.134;2022-12-18T06:11:36;19.40;99.90
16392;DHT22;8305;-33.882;151.134;2022-12-18T06:14:12;19.40;99.90
16392;DHT22;8305;-33.882;151.134;2022-12-18T06:16:46;19.40;99.90
16392;DHT22;8305;-33.882;151.134;2022-12-18T06:19:17;19.20;99.90
16392;DHT22;8305;-33.882;151.134;2022-12-18T06:21:51;19.30;99.90
16392;DHT22;8305;-33.882;151.134;2022-12-18T06:24:22;19.40;99.90
16392;DHT22;8305;-33.882;151.134;2022-12-18T06:26:52;19.30;99.90
16392;DHT22;8305;-33.882;151.134;2022-12-18T06:29:23;19.20;99.90
16392;DHT22;8305;-33.882;151.134;2022-12-18T06:31:56;19.20;99.90
16392;DHT22;8305;-33.882;151.134;2022-12-18T06:34:27;19.20;99.90
16392;DHT22;8305;-33.882;151.134;2022-12-18T06:36:58;19.20;99.90
16392;DHT22;8305;-33.882;151.134;2022-12-18T06:39:32;19.20;99.90
16392;DHT22;8305;-33.882;151.134;2022-12-18T06:42:04;19.20;99.90
16392;DHT22;8305;-33.882;151.134;2022-12-18T06:44:35;19.20;99.90
16392;DHT22;8305;-33.882;151.134;2022-12-18T06:47:07;19.20;99.90
16392;DHT22;8305;-33.882;151.134;2022-12-18T06:49:38;19.20;99.90
16392;DHT22;8305;-33.882;151.134;2022-12-18T06:52:09;19.10;99.90
16392;DHT22;8305;-33.882;151.134;2022-12-18T06:54:40;19.00;99.90
16392;DHT22;8305;-33.882;151.134;2022-12-18T06:57:11;19.00;99.90
16392;DHT22;8305;-33.882;151.134;2022-12-18T06:59:42;19.00;99.90
16392;DHT22;8305;-33.882;151.134;2022-12-18T07:02:15;19.10;99.90
16392;DHT22;8305;-33.882;151.134;2022-12-18T07:04:46;19.20;99.90
16392;DHT22;8305;-33.882;151.134;2022-12-18T07:07:16;19.10;99.90
16392;DHT22;8305;-33.882;151.134;2022-12-18T07:09:48;19.10;99.90
16392;DHT22;8305;-33.882;151.134;2022-12-18T07:12:19;19.10;99.90
16392;DHT22;8305;-33.882;151.134;2022-12-18T07:14:50;19.00;99.90
16392;DHT22;8305;-33.882;151.134;2022-12-18T07:17:22;19.00;99.90
16392;DHT22;8305;-33.882;151.134;2022-12-18T07:19:53;18.90;99.90
16392;DHT22;8305;-33.882;151.134;2022-12-18T07:22:26;18.80;99.90
16392;DHT22;8305;-33.882;151.134;2022-12-18T07:24:56;18.60;99.90
16392;DHT22;8305;-33.882;151.134;2022-12-18T07:27:27;18.50;99.90
16392;DHT22;8305;-33.882;151.134;2022-12-18T07:29:58;18.40;99.90
16392;DHT22;8305;-33.882;151.134;2022-12-18T07:32:31;18.40;99.90
16392;DHT22;8305;-33.882;151.134;2022-12-18T07:35:02;18.50;99.90
16392;DHT22;8305;-33.882;151.134;2022-12-18T07:37:35;18.60;99.90
16392;DHT22;8305;-33.882;151.134;2022-12-18T07:40:06;18.60;99.90
16392;DHT22;8305;-33.882;151.134;2022-12-18T07:42:37;18.60;99.90
16392;DHT22;8305;-33.882;151.134;2022-12-18T07:45:09;18.60;99.90
16392;DHT22;8305;-33.882;151.134;2022-12-18T07:47:41;18.40;99.90
16392;DHT22;8305;-33.882;151.134;2022-12-18T07:50:12;18.30;99.90
16392;DHT22;8305;-33.882;151.134;2022-12-18T07:52:43;18.20;99.90
16392;DHT22;8305;-33.882;151.134;2022-12-18T07:55:14;18.20;99.90
16392;DHT22;8305;-33.882;151.134;2022-12-18T07:57:45;18.20;99.90
16392;DHT22;8305;-33.882;151.134;2022-12-18T08:00:16;18.20;99.90
16392;DHT22;8305;-33.882;151.134;2022-12-18T08:02:50;18.20;99.90
16392;DHT22;8305;-33.882;151.134;2022-12-18T08:05:21;18.10;99.90
16392;DHT22;8305;-33.882;151.134;2022-12-18T08:07:52;18.00;99.90
16392;DHT22;8305;-33.882;151.134;2022-12-18T08:10:23;18.00;99.90
16392;DHT22;8305;-33.882;151.134;2022-12-18T08:12:54;17.90;99.90
16392;DHT22;8305;-33.882;151.134;2022-12-18T08:15:25;18.00;99.90
16392;DHT22;8305;-33.882;151.134;2022-12-18T08:17:59;18.00;99.90
16392;DHT22;8305;-33.882;151.134;2022-12-18T08:20:30;18.00;99.90
16392;DHT22;8305;-33.882;151.134;2022-12-18T08:23:01;18.00;99.90
16392;DHT22;8305;-33.882;151.134;2022-12-18T08:25:32;18.10;99.90
16392;DHT22;8305;-33.882;151.134;2022-12-18T08:28:03;18.10;99.90
16392;DHT22;8305;-33.882;151.134;2022-12-18T08:30:33;18.00;99.90
16392;DHT22;8305;-33.882;151.134;2022-12-18T08:33:07;18.00;99.90
16392;DHT22;8305;-33.882;151.134;2022-12-18T08:35:38;18.00;99.90
16392;DHT22;8305;-33.882;151.134;2022-12-18T08:38:09;18.00;99.90
16392;DHT22;8305;-33.882;151.134;2022-12-18T08:40:41;17.90;99.90
16392;DHT22;8305;-33.882;151.134;2022-12-18T08:43:12;17.90;99.90
16392;DHT22;8305;-33.882;151.134;2022-12-18T08:45:58;17.80;99.90
16392;DHT22;8305;-33.882;151.134;2022-12-18T08:48:31;17.60;99.90
16392;DHT22;8305;-33.882;151.134;2022-12-18T08:51:02;17.50;99.90
16392;DHT22;8305;-33.882;151.134;2022-12-18T08:53:33;17.50;99.90
16392;DHT22;8305;-33.882;151.134;2022-12-18T08:56:04;17.40;99.90
16392;DHT22;8305;-33.882;151.134;2022-12-18T08:58:35;17.30;99.90
16392;DHT22;8305;-33.882;151.134;2022-12-18T09:01:06;17.20;99.90
16392;DHT22;8305;-33.882;151.134;2022-12-18T09:03:41;17.10;99.90
16392;DHT22;8305;-33.882;151.134;2022-12-18T09:06:14;16.90;99.90
16392;DHT22;8305;-33.882;151.134;2022-12-18T09:08:45;16.80;99.90
16392;DHT22;8305;-33.882;151.134;2022-12-18T09:11:20;16.70;99.90
16392;DHT22;8305;-33.882;151.134;2022-12-18T09:13:51;16.70;99.90
16392;DHT22;8305;-33.882;151.134;2022-12-18T09:16:23;16.70;99.90
16392;DHT22;8305;-33.882;151.134;2022-12-18T09:18:58;16.60;99.90
16392;DHT22;8305;-33.882;151.134;2022-12-18T09:21:30;16.60;99.90
16392;DHT22;8305;-33.882;151.134;2022-12-18T09:24:01;16.50;99.90
16392;DHT22;8305;-33.882;151.134;2022-12-18T09:26:32;16.50;99.90
16392;DHT22;8305;-33.882;151.134;2022-12-18T09:29:04;16.60;99.90
16392;DHT22;8305;-33.882;151.134;2022-12-18T09:31:35;16.50;99.90
16392;DHT22;8305;-33.882;151.134;2022-12-18T09:34:08;16.50;99.90
16392;DHT22;8305;-33.882;151.134;2022-12-18T09:36:39;16.50;99.90
16392;DHT22;8305;-33.882;151.134;2022-12-18T09:39:10;16.50;99.90
16392;DHT22;8305;-33.882;151.134;2022-12-18T09:41:45;16.50;99.90
16392;DHT22;8305;-33.882;151.134;2022-12-18T09:44:24;16.50;99.90
16392;DHT22;8305;-33.882;151.134;2022-12-18T09:47:12;16.50;99.90
16392;DHT22;8305;-33.882;151.134;2022-12-18T09:49:47;16.60;99.90
16392;DHT22;8305;-33.882;151.134;2022-12-18T09:52:23;16.60;99.90
16392;DHT22;8305;-33.882;151.134;2022-12-18T09:55:01;16.60;99.90
16392;DHT22;8305;-33.882;151.134;2022-12-18T09:57:34;16.60;99.90
16392;DHT22;8305;-33.882;151.134;2022-12-18T10:00:11;16.60;99.90
16392;DHT22;8305;-33.882;151.134;2022-12-18T10:02:45;16.60;99.90
16392;DHT22;8305;-33.882;151.134;2022-12-18T10:05:25;16.70;99.90
16392;DHT22;8305;-33.882;151.134;2022-12-18T10:08:05;16.70;99.90
16392;DHT22;8305;-33.882;151.134;2022-12-18T10:10:41;16.70;99.90
16392;DHT22;8305;-33.882;151.134;2022-12-18T10:13:22;16.70;99.90
16392;DHT22;8305;-33.882;151.134;2022-12-18T10:16:05;16.70;99.90
16392;DHT22;8305;-33.882;151.134;2022-12-18T10:18:54;16.70;99.90
16392;DHT22;8305;-33.882;151.134;2022-12-18T10:21:36;16.80;99.90
16392;DHT22;8305;-33.882;151.134;2022-12-18T10:24:16;16.70;99.90
16392;DHT22;8305;-33.882;151.134;2022-12-18T10:26:50;16.80;99.90
16392;DHT22;8305;-33.882;151.134;2022-12-18T10:29:22;16.80;99.90
16392;DHT22;8305;-33.882;151.134;2022-12-18T10:31:55;16.80;99.90
16392;DHT22;8305;-33.882;151.134;2022-12-18T10:34:26;16.90;99.90
16392;DHT22;8305;-33.882;151.134;2022-12-18T10:36:59;16.80;99.90
16392;DHT22;8305;-33.882;151.134;2022-12-18T10:39:31;16.90;99.90
16392;DHT22;8305;-33.882;151.134;2022-12-18T10:42:14;16.90;99.90
16392;DHT22;8305;-33.882;151.134;2022-12-18T10:44:47;16.90;99.90
16392;DHT22;8305;-33.882;151.134;2022-12-18T10:47:31;16.90;99.90
16392;DHT22;8305;-33.882;151.134;2022-12-18T10:50:04;16.90;99.90
16392;DHT22;8305;-33.882;151.134;2022-12-18T10:52:37;16.80;99.90
16392;DHT22;8305;-33.882;151.134;2022-12-18T10:55:17;16.80;99.90
16392;DHT22;8305;-33.882;151.134;2022-12-18T10:57:48;16.70;99.90
16392;DHT22;8305;-33.882;151.134;2022-12-18T11:00:26;16.70;99.90
16392;DHT22;8305;-33.882;151.134;2022-12-18T11:02:57;16.60;99.90
16392;DHT22;8305;-33.882;151.134;2022-12-18T11:05:30;16.60;99.90
16392;DHT22;8305;-33.882;151.134;2022-12-18T11:08:03;16.60;99.90
16392;DHT22;8305;-33.882;151.134;2022-12-18T11:10:35;16.60;99.90
16392;DHT22;8305;-33.882;151.134;2022-12-18T11:13:19;16.60;99.90
16392;DHT22;8305;-33.882;151.134;2022-12-18T11:15:51;16.50;99.90
16392;DHT22;8305;-33.882;151.134;2022-12-18T11:18:27;16.50;99.90
16392;DHT22;8305;-33.882;151.134;2022-12-18T11:20:59;16.50;99.90
16392;DHT22;8305;-33.882;151.134;2022-12-18T11:23:34;16.50;99.90
16392;DHT22;8305;-33.882;151.134;2022-12-18T11:26:06;16.50;99.90
16392;DHT22;8305;-33.882;151.134;2022-12-18T11:28:38;16.50;99.90
16392;DHT22;8305;-33.882;151.134;2022-12-18T11:31:22;16.40;99.90
16392;DHT22;8305;-33.882;151.134;2022-12-18T11:34:04;16.30;99.90
16392;DHT22;8305;-33.882;151.134;2022-12-18T11:36:41;16.30;99.90
16392;DHT22;8305;-33.882;151.134;2022-12-18T11:39:18;16.30;99.90
16392;DHT22;8305;-33.882;151.134;2022-12-18T11:41:55;16.10;99.90
16392;DHT22;8305;-33.882;151.134;2022-12-18T11:44:48;16.20;99.90
16392;DHT22;8305;-33.882;151.134;2022-12-18T11:47:28;16.10;99.90
16392;DHT22;8305;-33.882;151.134;2022-12-18T11:50:02;16.10;99.90
16392;DHT22;8305;-33.882;151.134;2022-12-18T11:52:37;16.00;99.90
16392;DHT22;8305;-33.882;151.134;2022-12-18T11:55:15;16.00;99.90
16392;DHT22;8305;-33.882;151.134;2022-12-18T11:57:52;16.00;99.90
16392;DHT22;8305;-33.882;151.134;2022-12-18T12:00:28;16.00;99.90
16392;DHT22;8305;-33.882;151.134;2022-12-18T12:03:19;16.00;99.90
16392;DHT22;8305;-33.882;151.134;2022-12-18T12:06:05;15.90;99.90
16392;DHT22;8305;-33.882;151.134;2022-12-18T12:08:47;15.90;99.90
16392;DHT22;8305;-33.882;151.134;2022-12-18T12:11:28;15.90;99.90
16392;DHT22;8305;-33.882;151.134;2022-12-18T12:14:22;15.90;99.90
16392;DHT22;8305;-33.882;151.134;2022-12-18T12:16:58;15.90;99.90
16392;DHT22;8305;-33.882;151.134;2022-12-18T12:19:45;15.90;99.90
16392;DHT22;8305;-33.882;151.134;2022-12-18T12:22:25;15.80;99.90
16392;DHT22;8305;-33.882;151.134;2022-12-18T12:25:11;15.70;99.90
16392;DHT22;8305;-33.882;151.134;2022-12-18T12:27:53;15.60;99.90
16392;DHT22;8305;-33.882;151.134;2022-12-18T12:30:33;15.50;99.90
16392;DHT22;8305;-33.882;151.134;2022-12-18T12:33:18;15.50;99.90
16392;DHT22;8305;-33.882;151.134;2022-12-18T12:35:58;15.50;99.90
16392;DHT22;8305;-33.882;151.134;2022-12-18T12:38:35;15.50;99.90
16392;DHT22;8305;-33.882;151.134;2022-12-18T12:41:10;15.50;99.90
16392;DHT22;8305;-33.882;151.134;2022-12-18T12:44:00;15.40;99.90
16392;DHT22;8305;-33.882;151.134;2022-12-18T12:46:36;15.40;99.90
16392;DHT22;8305;-33.882;151.134;2022-12-18T12:49:13;15.40;99.90
16392;DHT22;8305;-33.882;151.134;2022-12-18T12:51:47;15.40;99.90
16392;DHT22;8305;-33.882;151.134;2022-12-18T12:54:23;15.40;99.90
16392;DHT22;8305;-33.882;151.134;2022-12-18T12:57:05;15.30;99.90
16392;DHT22;8305;-33.882;151.134;2022-12-18T12:59:45;15.30;99.90
16392;DHT22;8305;-33.882;151.134;2022-12-18T13:02:22;15.30;99.90
16392;DHT22;8305;-33.882;151.134;2022-12-18T13:04:59;15.30;99.90
16392;DHT22;8305;-33.882;151.134;2022-12-18T13:07:37;15.30;99.90
16392;DHT22;8305;-33.882;151.134;2022-12-18T13:10:34;15.30;99.90
16392;DHT22;8305;-33.882;151.134;2022-12-18T13:13:06;15.40;99.90
16392;DHT22;8305;-33.882;151.134;2022-12-18T13:16:03;15.30;99.90
16392;DHT22;8305;-33.882;151.134;2022-12-18T13:18:35;15.40;99.90
16392;DHT22;8305;-33.882;151.134;2022-12-18T13:21:15;15.40;99.90
16392;DHT22;8305;-33.882;151.134;2022-12-18T13:23:49;15.40;99.90
16392;DHT22;8305;-33.882;151.134;2022-12-18T13:26:37;15.40;99.90
16392;DHT22;8305;-33.882;151.134;2022-12-18T13:29:08;15.40;99.90
16392;DHT22;8305;-33.882;151.134;2022-12-18T13:32:21;15.40;99.90
16392;DHT22;8305;-33.882;151.134;2022-12-18T13:38:20;15.50;99.90
16392;DHT22;8305;-33.882;151.134;2022-12-18T13:40:56;15.50;99.90
16392;DHT22;8305;-33.882;151.134;2022-12-18T13:43:47;15.60;99.90
16392;DHT22;8305;-33.882;151.134;2022-12-18T13:46:21;15.60;99.90
16392;DHT22;8305;-33.882;151.134;2022-12-18T13:48:57;15.60;99.90
16392;DHT22;8305;-33.882;151.134;2022-12-18T13:51:28;15.60;99.90
16392;DHT22;8305;-33.882;151.134;2022-12-18T13:54:01;15.70;99.90
16392;DHT22;8305;-33.882;151.134;2022-12-18T13:56:33;15.60;99.90
16392;DHT22;8305;-33.882;151.134;2022-12-18T13:59:13;15.60;99.90
16392;DHT22;8305;-33.882;151.134;2022-12-18T14:01:46;15.60;99.90
16392;DHT22;8305;-33.882;151.134;2022-12-18T14:04:24;15.60;99.90
16392;DHT22;8305;-33.882;151.134;2022-12-18T14:06:58;15.60;99.90
16392;DHT22;8305;-33.882;151.134;2022-12-18T14:09:30;15.60;99.90
16392;DHT22;8305;-33.882;151.134;2022-12-18T14:12:03;15.50;99.90
16392;DHT22;8305;-33.882;151.134;2022-12-18T14:14:52;15.50;99.90
16392;DHT22;8305;-33.882;151.134;2022-12-18T14:17:23;15.50;99.90
16392;DHT22;8305;-33.882;151.134;2022-12-18T14:19:56;15.50;99.90
16392;DHT22;8305;-33.882;151.134;2022-12-18T14:22:30;15.50;99.90
16392;DHT22;8305;-33.882;151.134;2022-12-18T14:25:16;15.40;99.90
16392;DHT22;8305;-33.882;151.134;2022-12-18T14:27:50;15.40;99.90
16392;DHT22;8305;-33.882;151.134;2022-12-18T14:30:28;15.40;99.90
16392;DHT22;8305;-33.882;151.134;2022-12-18T14:33:08;15.40;99.90
16392;DHT22;8305;-33.882;151.134;2022-12-18T14:35:52;15.30;99.90
16392;DHT22;8305;-33.882;151.134;2022-12-18T14:38:26;15.30;99.90
16392;DHT22;8305;-33.882;151.134;2022-12-18T14:41:00;15.30;99.90
16392;DHT22;8305;-33.882;151.134;2022-12-18T14:43:33;15.30;99.90
16392;DHT22;8305;-33.882;151.134;2022-12-18T14:46:05;15.30;99.90
16392;DHT22;8305;-33.882;151.134;2022-12-18T14:48:39;15.20;99.90
16392;DHT22;8305;-33.882;151.134;2022-12-18T14:51:19;15.30;99.90
16392;DHT22;8305;-33.882;151.134;2022-12-18T14:53:54;15.30;99.90
16392;DHT22;8305;-33.882;151.134;2022-12-18T14:56:26;15.30;99.90
16392;DHT22;8305;-33.882;151.134;2022-12-18T14:58:58;15.30;99.90
16392;DHT22;8305;-33.882;151.134;2022-12-18T15:01:31;15.30;99.90
16392;DHT22;8305;-33.882;151.134;2022-12-18T15:04:04;15.30;99.90
16392;DHT22;8305;-33.882;151.134;2022-12-18T15:06:38;15.30;99.90
16392;DHT22;8305;-33.882;151.134;2022-12-18T15:09:24;15.30;99.90
16392;DHT22;8305;-33.882;151.134;2022-12-18T15:11:57;15.30;99.90
16392;DHT22;8305;-33.882;151.134;2022-12-18T15:14:39;15.30;99.90
16392;DHT22;8305;-33.882;151.134;2022-12-18T15:17:18;15.40;99.90
16392;DHT22;8305;-33.882;151.134;2022-12-18T15:19:49;15.40;99.90
16392;DHT22;8305;-33.882;151.134;2022-12-18T15:22:27;15.40;99.90
16392;DHT22;8305;-33.882;151.134;2022-12-18T15:24:59;15.50;99.90
16392;DHT22;8305;-33.882;151.134;2022-12-18T15:27:32;15.50;99.90
16392;DHT22;8305;-33.882;151.134;2022-12-18T15:30:23;15.60;99.90
16392;DHT22;8305;-33.882;151.134;2022-12-18T15:33:20;15.70;99.90
16392;DHT22;8305;-33.882;151.134;2022-12-18T15:35:58;15.80;99.90
16392;DHT22;8305;-33.882;151.134;2022-12-18T15:38:30;15.80;99.90
16392;DHT22;8305;-33.882;151.134;2022-12-18T15:41:02;15.90;99.90
16392;DHT22;8305;-33.882;151.134;2022-12-18T15:43:38;15.90;99.90
16392;DHT22;8305;-33.882;151.134;2022-12-18T15:46:11;15.90;99.90
16392;DHT22;8305;-33.882;151.134;2022-12-18T15:48:43;15.90;99.90
16392;DHT22;8305;-33.882;151.134;2022-12-18T15:51:16;15.90;99.90